<?xml version="1.0" encoding="UTF-8" standalone="no" ?>
<gpx xmlns="http://www.topografix.com/GPX/1/1" xmlns:xsi="http://www.w3.org/2001/XMLSchema-instance" xsi:schemaLocation="http://www.topografix.com/GPX/1/1 http://www.topografix.com/GPX/1/1/gpx.xsd" version="1.1" creator="VisuGPX - https://www.visugpx.com">
  <metadata>
    <name>Aldudes PR LEPEDER</name>
    <desc><![CDATA[Circuit du PR Aldudes LEPEDER.
Circuit habituel qui monte au collet LEPEDER, puis reviendra par le sentier patrimonial du porc du Kintoa.
Il conviendra quand même de faire attention lors de la montée au démarrage dans les rochers, et dans le circuit avec des passages gravillonnés et dégradés. Bonnes chaussures à prévoir.

[url=https://gb-rando.blogspot.com/2026/07/aldudes-circuit-pr-lepeder.html]voir rando[/url]

]]></desc>
  </metadata>
  <trk>
    <name><![CDATA[ALDUDES LEPEDER  09]]></name>
    <trkseg>
      <trkpt lat="43.09857" lon="-1.42795">
        <ele>368.43</ele>
        <time>2026-07-16T05:32:56Z</time>
      </trkpt>
      <trkpt lat="43.09857" lon="-1.42795">
        <ele>368.43</ele>
        <time>2026-07-16T05:32:57Z</time>
      </trkpt>
      <trkpt lat="43.09858" lon="-1.42795">
        <ele>365.92</ele>
        <time>2026-07-16T05:33:02Z</time>
      </trkpt>
      <trkpt lat="43.09857" lon="-1.42803">
        <ele>365.91</ele>
        <time>2026-07-16T05:33:19Z</time>
      </trkpt>
      <trkpt lat="43.09854" lon="-1.42806">
        <ele>365.9</ele>
        <time>2026-07-16T05:33:44Z</time>
      </trkpt>
      <trkpt lat="43.09857" lon="-1.42805">
        <ele>365.74</ele>
        <time>2026-07-16T05:34:10Z</time>
      </trkpt>
      <trkpt lat="43.09849" lon="-1.42793">
        <ele>365.8</ele>
        <time>2026-07-16T05:34:42Z</time>
      </trkpt>
      <trkpt lat="43.09851" lon="-1.42798">
        <ele>365.72</ele>
        <time>2026-07-16T05:35:04Z</time>
      </trkpt>
      <trkpt lat="43.09855" lon="-1.42799">
        <ele>365.79</ele>
        <time>2026-07-16T05:35:09Z</time>
      </trkpt>
      <trkpt lat="43.09856" lon="-1.42799">
        <ele>365.78</ele>
        <time>2026-07-16T05:35:11Z</time>
      </trkpt>
      <trkpt lat="43.09856" lon="-1.42793">
        <ele>366.25</ele>
        <time>2026-07-16T05:35:32Z</time>
      </trkpt>
      <trkpt lat="43.09857" lon="-1.42777">
        <ele>365.79</ele>
        <time>2026-07-16T05:35:52Z</time>
      </trkpt>
      <trkpt lat="43.09857" lon="-1.42755">
        <ele>365.99</ele>
        <time>2026-07-16T05:36:11Z</time>
      </trkpt>
      <trkpt lat="43.09859" lon="-1.42745">
        <ele>366.28</ele>
        <time>2026-07-16T05:36:30Z</time>
      </trkpt>
      <trkpt lat="43.09852" lon="-1.42736">
        <ele>366.26</ele>
        <time>2026-07-16T05:36:44Z</time>
      </trkpt>
      <trkpt lat="43.09847" lon="-1.42732">
        <ele>366.49</ele>
        <time>2026-07-16T05:36:49Z</time>
      </trkpt>
      <trkpt lat="43.09835" lon="-1.42714">
        <ele>366.86</ele>
        <time>2026-07-16T05:37:10Z</time>
      </trkpt>
      <trkpt lat="43.09823" lon="-1.42693">
        <ele>367.65</ele>
        <time>2026-07-16T05:37:30Z</time>
      </trkpt>
      <trkpt lat="43.09816" lon="-1.42683">
        <ele>368.18</ele>
        <time>2026-07-16T05:37:43Z</time>
      </trkpt>
      <trkpt lat="43.09808" lon="-1.42679">
        <ele>368.09</ele>
        <time>2026-07-16T05:37:56Z</time>
      </trkpt>
      <trkpt lat="43.09799" lon="-1.42671">
        <ele>369.15</ele>
        <time>2026-07-16T05:38:16Z</time>
      </trkpt>
      <trkpt lat="43.09803" lon="-1.42655">
        <ele>369.59</ele>
        <time>2026-07-16T05:38:35Z</time>
      </trkpt>
      <trkpt lat="43.09805" lon="-1.42644">
        <ele>372.8</ele>
        <time>2026-07-16T05:38:49Z</time>
      </trkpt>
      <trkpt lat="43.09808" lon="-1.42636">
        <ele>374.91</ele>
        <time>2026-07-16T05:39:07Z</time>
      </trkpt>
      <trkpt lat="43.09803" lon="-1.42638">
        <ele>375.7</ele>
        <time>2026-07-16T05:39:34Z</time>
      </trkpt>
      <trkpt lat="43.09803" lon="-1.42633">
        <ele>376.73</ele>
        <time>2026-07-16T05:39:53Z</time>
      </trkpt>
      <trkpt lat="43.09813" lon="-1.42637">
        <ele>378.49</ele>
        <time>2026-07-16T05:40:10Z</time>
      </trkpt>
      <trkpt lat="43.09823" lon="-1.42637">
        <ele>380.87</ele>
        <time>2026-07-16T05:40:28Z</time>
      </trkpt>
      <trkpt lat="43.09828" lon="-1.42635">
        <ele>382.86</ele>
        <time>2026-07-16T05:40:44Z</time>
      </trkpt>
      <trkpt lat="43.09826" lon="-1.42631">
        <ele>384.12</ele>
        <time>2026-07-16T05:41:06Z</time>
      </trkpt>
      <trkpt lat="43.09825" lon="-1.4264">
        <ele>383.77</ele>
        <time>2026-07-16T05:41:35Z</time>
      </trkpt>
      <trkpt lat="43.09822" lon="-1.42643">
        <ele>383.51</ele>
        <time>2026-07-16T05:42:05Z</time>
      </trkpt>
      <trkpt lat="43.09821" lon="-1.42643">
        <ele>383.92</ele>
        <time>2026-07-16T05:42:33Z</time>
      </trkpt>
      <trkpt lat="43.09824" lon="-1.42635">
        <ele>384</ele>
        <time>2026-07-16T05:42:56Z</time>
      </trkpt>
      <trkpt lat="43.09823" lon="-1.42632">
        <ele>383.75</ele>
        <time>2026-07-16T05:43:14Z</time>
      </trkpt>
      <trkpt lat="43.09821" lon="-1.42627">
        <ele>385.41</ele>
        <time>2026-07-16T05:43:38Z</time>
      </trkpt>
      <trkpt lat="43.09817" lon="-1.42624">
        <ele>385.66</ele>
        <time>2026-07-16T05:43:57Z</time>
      </trkpt>
      <trkpt lat="43.09815" lon="-1.42624">
        <ele>385.99</ele>
        <time>2026-07-16T05:44:19Z</time>
      </trkpt>
      <trkpt lat="43.0981" lon="-1.4262">
        <ele>387.78</ele>
        <time>2026-07-16T05:44:40Z</time>
      </trkpt>
      <trkpt lat="43.09803" lon="-1.42614">
        <ele>388.26</ele>
        <time>2026-07-16T05:45:04Z</time>
      </trkpt>
      <trkpt lat="43.09791" lon="-1.42606">
        <ele>390.95</ele>
        <time>2026-07-16T05:45:23Z</time>
      </trkpt>
      <trkpt lat="43.09785" lon="-1.42597">
        <ele>393.22</ele>
        <time>2026-07-16T05:45:43Z</time>
      </trkpt>
      <trkpt lat="43.09785" lon="-1.42598">
        <ele>393.37</ele>
        <time>2026-07-16T05:46:04Z</time>
      </trkpt>
      <trkpt lat="43.09783" lon="-1.42599">
        <ele>393.61</ele>
        <time>2026-07-16T05:46:29Z</time>
      </trkpt>
      <trkpt lat="43.09779" lon="-1.42594">
        <ele>395.64</ele>
        <time>2026-07-16T05:46:49Z</time>
      </trkpt>
      <trkpt lat="43.09784" lon="-1.42593">
        <ele>395.91</ele>
        <time>2026-07-16T05:47:16Z</time>
      </trkpt>
      <trkpt lat="43.09781" lon="-1.42592">
        <ele>396.61</ele>
        <time>2026-07-16T05:47:42Z</time>
      </trkpt>
      <trkpt lat="43.09772" lon="-1.42579">
        <ele>399.15</ele>
        <time>2026-07-16T05:48:01Z</time>
      </trkpt>
      <trkpt lat="43.09763" lon="-1.42569">
        <ele>401.92</ele>
        <time>2026-07-16T05:48:24Z</time>
      </trkpt>
      <trkpt lat="43.09757" lon="-1.42564">
        <ele>404.42</ele>
        <time>2026-07-16T05:48:41Z</time>
      </trkpt>
      <trkpt lat="43.09755" lon="-1.42553">
        <ele>406.67</ele>
        <time>2026-07-16T05:49:02Z</time>
      </trkpt>
      <trkpt lat="43.0976" lon="-1.42554">
        <ele>407.06</ele>
        <time>2026-07-16T05:49:24Z</time>
      </trkpt>
      <trkpt lat="43.09765" lon="-1.42553">
        <ele>409.02</ele>
        <time>2026-07-16T05:49:44Z</time>
      </trkpt>
      <trkpt lat="43.09774" lon="-1.42549">
        <ele>410.4</ele>
        <time>2026-07-16T05:50:02Z</time>
      </trkpt>
      <trkpt lat="43.09768" lon="-1.42544">
        <ele>412.26</ele>
        <time>2026-07-16T05:50:19Z</time>
      </trkpt>
      <trkpt lat="43.09761" lon="-1.42537">
        <ele>414.24</ele>
        <time>2026-07-16T05:50:37Z</time>
      </trkpt>
      <trkpt lat="43.09753" lon="-1.42535">
        <ele>415.6</ele>
        <time>2026-07-16T05:50:54Z</time>
      </trkpt>
      <trkpt lat="43.09749" lon="-1.42531">
        <ele>415.93</ele>
        <time>2026-07-16T05:51:00Z</time>
      </trkpt>
      <trkpt lat="43.09747" lon="-1.42526">
        <ele>417.56</ele>
        <time>2026-07-16T05:51:12Z</time>
      </trkpt>
      <trkpt lat="43.09745" lon="-1.42527">
        <ele>417.49</ele>
        <time>2026-07-16T05:51:33Z</time>
      </trkpt>
      <trkpt lat="43.09746" lon="-1.42527">
        <ele>417.5</ele>
        <time>2026-07-16T05:51:59Z</time>
      </trkpt>
      <trkpt lat="43.09751" lon="-1.42524">
        <ele>417.71</ele>
        <time>2026-07-16T05:52:34Z</time>
      </trkpt>
      <trkpt lat="43.09748" lon="-1.42514">
        <ele>416.92</ele>
        <time>2026-07-16T05:52:57Z</time>
      </trkpt>
      <trkpt lat="43.09738" lon="-1.42494">
        <ele>417.99</ele>
        <time>2026-07-16T05:53:20Z</time>
      </trkpt>
      <trkpt lat="43.0973" lon="-1.42481">
        <ele>416.94</ele>
        <time>2026-07-16T05:53:38Z</time>
      </trkpt>
      <trkpt lat="43.09718" lon="-1.42475">
        <ele>419.59</ele>
        <time>2026-07-16T05:53:56Z</time>
      </trkpt>
      <trkpt lat="43.09708" lon="-1.4248">
        <ele>421.79</ele>
        <time>2026-07-16T05:54:15Z</time>
      </trkpt>
      <trkpt lat="43.09708" lon="-1.42472">
        <ele>423.04</ele>
        <time>2026-07-16T05:54:32Z</time>
      </trkpt>
      <trkpt lat="43.0971" lon="-1.42461">
        <ele>425</ele>
        <time>2026-07-16T05:54:49Z</time>
      </trkpt>
      <trkpt lat="43.09712" lon="-1.42448">
        <ele>427.07</ele>
        <time>2026-07-16T05:55:10Z</time>
      </trkpt>
      <trkpt lat="43.09715" lon="-1.4244">
        <ele>428.56</ele>
        <time>2026-07-16T05:55:24Z</time>
      </trkpt>
      <trkpt lat="43.09716" lon="-1.4243">
        <ele>430.5</ele>
        <time>2026-07-16T05:55:41Z</time>
      </trkpt>
      <trkpt lat="43.09718" lon="-1.42427">
        <ele>429.91</ele>
        <time>2026-07-16T05:56:01Z</time>
      </trkpt>
      <trkpt lat="43.09718" lon="-1.42428">
        <ele>431.93</ele>
        <time>2026-07-16T05:56:04Z</time>
      </trkpt>
      <trkpt lat="43.09718" lon="-1.42428">
        <ele>430.94</ele>
        <time>2026-07-16T05:56:06Z</time>
      </trkpt>
      <trkpt lat="43.0972" lon="-1.42426">
        <ele>431.02</ele>
        <time>2026-07-16T05:56:30Z</time>
      </trkpt>
      <trkpt lat="43.09717" lon="-1.42428">
        <ele>431.04</ele>
        <time>2026-07-16T05:56:58Z</time>
      </trkpt>
      <trkpt lat="43.09717" lon="-1.4243">
        <ele>430.5</ele>
        <time>2026-07-16T05:57:22Z</time>
      </trkpt>
      <trkpt lat="43.09721" lon="-1.42431">
        <ele>430.04</ele>
        <time>2026-07-16T05:57:56Z</time>
      </trkpt>
      <trkpt lat="43.0972" lon="-1.42432">
        <ele>430.1</ele>
        <time>2026-07-16T05:57:58Z</time>
      </trkpt>
      <trkpt lat="43.09719" lon="-1.42432">
        <ele>429.99</ele>
        <time>2026-07-16T05:58:16Z</time>
      </trkpt>
      <trkpt lat="43.09722" lon="-1.4242">
        <ele>432.38</ele>
        <time>2026-07-16T05:58:34Z</time>
      </trkpt>
      <trkpt lat="43.09724" lon="-1.42405">
        <ele>434.21</ele>
        <time>2026-07-16T05:58:51Z</time>
      </trkpt>
      <trkpt lat="43.09729" lon="-1.42393">
        <ele>435.8</ele>
        <time>2026-07-16T05:59:03Z</time>
      </trkpt>
      <trkpt lat="43.09731" lon="-1.42385">
        <ele>437.41</ele>
        <time>2026-07-16T05:59:16Z</time>
      </trkpt>
      <trkpt lat="43.09731" lon="-1.42375">
        <ele>439.08</ele>
        <time>2026-07-16T05:59:33Z</time>
      </trkpt>
      <trkpt lat="43.09735" lon="-1.42367">
        <ele>440.15</ele>
        <time>2026-07-16T05:59:44Z</time>
      </trkpt>
      <trkpt lat="43.09736" lon="-1.42357">
        <ele>441.43</ele>
        <time>2026-07-16T05:59:58Z</time>
      </trkpt>
      <trkpt lat="43.0974" lon="-1.42345">
        <ele>442.77</ele>
        <time>2026-07-16T06:00:11Z</time>
      </trkpt>
      <trkpt lat="43.09743" lon="-1.42341">
        <ele>443.67</ele>
        <time>2026-07-16T06:00:19Z</time>
      </trkpt>
      <trkpt lat="43.09743" lon="-1.42334">
        <ele>445.22</ele>
        <time>2026-07-16T06:00:34Z</time>
      </trkpt>
      <trkpt lat="43.09743" lon="-1.42331">
        <ele>445.8</ele>
        <time>2026-07-16T06:00:40Z</time>
      </trkpt>
      <trkpt lat="43.09748" lon="-1.42325">
        <ele>447.08</ele>
        <time>2026-07-16T06:00:53Z</time>
      </trkpt>
      <trkpt lat="43.09749" lon="-1.42324">
        <ele>448.34</ele>
        <time>2026-07-16T06:01:03Z</time>
      </trkpt>
      <trkpt lat="43.09757" lon="-1.42314">
        <ele>450.83</ele>
        <time>2026-07-16T06:01:21Z</time>
      </trkpt>
      <trkpt lat="43.09759" lon="-1.42305">
        <ele>452.48</ele>
        <time>2026-07-16T06:01:35Z</time>
      </trkpt>
      <trkpt lat="43.09759" lon="-1.42301">
        <ele>453.92</ele>
        <time>2026-07-16T06:01:48Z</time>
      </trkpt>
      <trkpt lat="43.09762" lon="-1.42293">
        <ele>455.72</ele>
        <time>2026-07-16T06:02:04Z</time>
      </trkpt>
      <trkpt lat="43.09766" lon="-1.42285">
        <ele>458.03</ele>
        <time>2026-07-16T06:02:23Z</time>
      </trkpt>
      <trkpt lat="43.09771" lon="-1.4228">
        <ele>459.19</ele>
        <time>2026-07-16T06:02:38Z</time>
      </trkpt>
      <trkpt lat="43.09776" lon="-1.42274">
        <ele>461.18</ele>
        <time>2026-07-16T06:02:58Z</time>
      </trkpt>
      <trkpt lat="43.0978" lon="-1.42264">
        <ele>463.98</ele>
        <time>2026-07-16T06:03:16Z</time>
      </trkpt>
      <trkpt lat="43.09785" lon="-1.42258">
        <ele>465.76</ele>
        <time>2026-07-16T06:03:31Z</time>
      </trkpt>
      <trkpt lat="43.09785" lon="-1.42252">
        <ele>466.63</ele>
        <time>2026-07-16T06:03:45Z</time>
      </trkpt>
      <trkpt lat="43.09788" lon="-1.42247">
        <ele>466.96</ele>
        <time>2026-07-16T06:04:09Z</time>
      </trkpt>
      <trkpt lat="43.09792" lon="-1.42248">
        <ele>466.88</ele>
        <time>2026-07-16T06:04:17Z</time>
      </trkpt>
      <trkpt lat="43.0979" lon="-1.4225">
        <ele>466.68</ele>
        <time>2026-07-16T06:04:49Z</time>
      </trkpt>
      <trkpt lat="43.09792" lon="-1.42252">
        <ele>466.85</ele>
        <time>2026-07-16T06:05:18Z</time>
      </trkpt>
      <trkpt lat="43.09791" lon="-1.42255">
        <ele>466.58</ele>
        <time>2026-07-16T06:05:44Z</time>
      </trkpt>
      <trkpt lat="43.09793" lon="-1.42261">
        <ele>466.69</ele>
        <time>2026-07-16T06:06:13Z</time>
      </trkpt>
      <trkpt lat="43.09794" lon="-1.4226">
        <ele>466.73</ele>
        <time>2026-07-16T06:06:36Z</time>
      </trkpt>
      <trkpt lat="43.09799" lon="-1.42248">
        <ele>468.65</ele>
        <time>2026-07-16T06:06:52Z</time>
      </trkpt>
      <trkpt lat="43.09805" lon="-1.42231">
        <ele>471.39</ele>
        <time>2026-07-16T06:07:13Z</time>
      </trkpt>
      <trkpt lat="43.09813" lon="-1.42219">
        <ele>473.81</ele>
        <time>2026-07-16T06:07:30Z</time>
      </trkpt>
      <trkpt lat="43.09817" lon="-1.42206">
        <ele>476.17</ele>
        <time>2026-07-16T06:07:49Z</time>
      </trkpt>
      <trkpt lat="43.0982" lon="-1.42193">
        <ele>477.92</ele>
        <time>2026-07-16T06:08:06Z</time>
      </trkpt>
      <trkpt lat="43.09821" lon="-1.42188">
        <ele>478.49</ele>
        <time>2026-07-16T06:08:11Z</time>
      </trkpt>
      <trkpt lat="43.09822" lon="-1.42184">
        <ele>479.04</ele>
        <time>2026-07-16T06:08:23Z</time>
      </trkpt>
      <trkpt lat="43.0982" lon="-1.42186">
        <ele>478.65</ele>
        <time>2026-07-16T06:08:42Z</time>
      </trkpt>
      <trkpt lat="43.09821" lon="-1.42193">
        <ele>478.41</ele>
        <time>2026-07-16T06:09:10Z</time>
      </trkpt>
      <trkpt lat="43.0982" lon="-1.4219">
        <ele>478.55</ele>
        <time>2026-07-16T06:09:38Z</time>
      </trkpt>
      <trkpt lat="43.09819" lon="-1.42175">
        <ele>478.78</ele>
        <time>2026-07-16T06:09:57Z</time>
      </trkpt>
      <trkpt lat="43.09818" lon="-1.42163">
        <ele>478.23</ele>
        <time>2026-07-16T06:10:13Z</time>
      </trkpt>
      <trkpt lat="43.09816" lon="-1.42143">
        <ele>477.59</ele>
        <time>2026-07-16T06:10:33Z</time>
      </trkpt>
      <trkpt lat="43.09814" lon="-1.42129">
        <ele>478.13</ele>
        <time>2026-07-16T06:10:51Z</time>
      </trkpt>
      <trkpt lat="43.09811" lon="-1.42109">
        <ele>479.13</ele>
        <time>2026-07-16T06:11:11Z</time>
      </trkpt>
      <trkpt lat="43.09804" lon="-1.42093">
        <ele>479.66</ele>
        <time>2026-07-16T06:11:30Z</time>
      </trkpt>
      <trkpt lat="43.09801" lon="-1.4207">
        <ele>480.2</ele>
        <time>2026-07-16T06:11:50Z</time>
      </trkpt>
      <trkpt lat="43.09797" lon="-1.42046">
        <ele>481.83</ele>
        <time>2026-07-16T06:12:11Z</time>
      </trkpt>
      <trkpt lat="43.09794" lon="-1.42027">
        <ele>483.19</ele>
        <time>2026-07-16T06:12:31Z</time>
      </trkpt>
      <trkpt lat="43.09791" lon="-1.42006">
        <ele>484.42</ele>
        <time>2026-07-16T06:12:50Z</time>
      </trkpt>
      <trkpt lat="43.09786" lon="-1.4199">
        <ele>486.19</ele>
        <time>2026-07-16T06:13:08Z</time>
      </trkpt>
      <trkpt lat="43.09783" lon="-1.41967">
        <ele>487.14</ele>
        <time>2026-07-16T06:13:29Z</time>
      </trkpt>
      <trkpt lat="43.09777" lon="-1.41946">
        <ele>488.32</ele>
        <time>2026-07-16T06:13:51Z</time>
      </trkpt>
      <trkpt lat="43.09773" lon="-1.41926">
        <ele>489.48</ele>
        <time>2026-07-16T06:14:14Z</time>
      </trkpt>
      <trkpt lat="43.09767" lon="-1.41911">
        <ele>489.73</ele>
        <time>2026-07-16T06:14:30Z</time>
      </trkpt>
      <trkpt lat="43.09769" lon="-1.41908">
        <ele>489.66</ele>
        <time>2026-07-16T06:14:46Z</time>
      </trkpt>
      <trkpt lat="43.09764" lon="-1.41902">
        <ele>489.76</ele>
        <time>2026-07-16T06:15:05Z</time>
      </trkpt>
      <trkpt lat="43.09756" lon="-1.41892">
        <ele>491.43</ele>
        <time>2026-07-16T06:15:24Z</time>
      </trkpt>
      <trkpt lat="43.09746" lon="-1.41879">
        <ele>492.67</ele>
        <time>2026-07-16T06:15:45Z</time>
      </trkpt>
      <trkpt lat="43.09737" lon="-1.41869">
        <ele>493.92</ele>
        <time>2026-07-16T06:16:04Z</time>
      </trkpt>
      <trkpt lat="43.09731" lon="-1.4186">
        <ele>494.29</ele>
        <time>2026-07-16T06:16:14Z</time>
      </trkpt>
      <trkpt lat="43.09724" lon="-1.41842">
        <ele>495.72</ele>
        <time>2026-07-16T06:16:33Z</time>
      </trkpt>
      <trkpt lat="43.0972" lon="-1.41826">
        <ele>498.29</ele>
        <time>2026-07-16T06:16:49Z</time>
      </trkpt>
      <trkpt lat="43.09716" lon="-1.41808">
        <ele>499.96</ele>
        <time>2026-07-16T06:17:08Z</time>
      </trkpt>
      <trkpt lat="43.09711" lon="-1.4179">
        <ele>501.98</ele>
        <time>2026-07-16T06:17:26Z</time>
      </trkpt>
      <trkpt lat="43.09707" lon="-1.41784">
        <ele>504.22</ele>
        <time>2026-07-16T06:17:44Z</time>
      </trkpt>
      <trkpt lat="43.09703" lon="-1.41771">
        <ele>506.52</ele>
        <time>2026-07-16T06:18:04Z</time>
      </trkpt>
      <trkpt lat="43.09702" lon="-1.41768">
        <ele>507.88</ele>
        <time>2026-07-16T06:18:21Z</time>
      </trkpt>
      <trkpt lat="43.09705" lon="-1.41769">
        <ele>507.56</ele>
        <time>2026-07-16T06:18:48Z</time>
      </trkpt>
      <trkpt lat="43.09704" lon="-1.41765">
        <ele>507.91</ele>
        <time>2026-07-16T06:19:13Z</time>
      </trkpt>
      <trkpt lat="43.09703" lon="-1.41765">
        <ele>507.85</ele>
        <time>2026-07-16T06:19:46Z</time>
      </trkpt>
      <trkpt lat="43.09703" lon="-1.41773">
        <ele>507.36</ele>
        <time>2026-07-16T06:20:17Z</time>
      </trkpt>
      <trkpt lat="43.09707" lon="-1.41783">
        <ele>505.46</ele>
        <time>2026-07-16T06:20:41Z</time>
      </trkpt>
      <trkpt lat="43.09707" lon="-1.41786">
        <ele>505.05</ele>
        <time>2026-07-16T06:21:10Z</time>
      </trkpt>
      <trkpt lat="43.09707" lon="-1.41782">
        <ele>505.67</ele>
        <time>2026-07-16T06:21:37Z</time>
      </trkpt>
      <trkpt lat="43.09704" lon="-1.41765">
        <ele>508.33</ele>
        <time>2026-07-16T06:21:59Z</time>
      </trkpt>
      <trkpt lat="43.097" lon="-1.41745">
        <ele>508.61</ele>
        <time>2026-07-16T06:22:17Z</time>
      </trkpt>
      <trkpt lat="43.09688" lon="-1.4173">
        <ele>508.03</ele>
        <time>2026-07-16T06:22:39Z</time>
      </trkpt>
      <trkpt lat="43.09679" lon="-1.41719">
        <ele>507.28</ele>
        <time>2026-07-16T06:22:54Z</time>
      </trkpt>
      <trkpt lat="43.09664" lon="-1.41704">
        <ele>507.83</ele>
        <time>2026-07-16T06:23:16Z</time>
      </trkpt>
      <trkpt lat="43.09649" lon="-1.41691">
        <ele>508.67</ele>
        <time>2026-07-16T06:23:37Z</time>
      </trkpt>
      <trkpt lat="43.0963" lon="-1.41672">
        <ele>509.58</ele>
        <time>2026-07-16T06:24:01Z</time>
      </trkpt>
      <trkpt lat="43.09615" lon="-1.41662">
        <ele>511.56</ele>
        <time>2026-07-16T06:24:21Z</time>
      </trkpt>
      <trkpt lat="43.09616" lon="-1.41659">
        <ele>511.94</ele>
        <time>2026-07-16T06:24:46Z</time>
      </trkpt>
      <trkpt lat="43.09616" lon="-1.41655">
        <ele>512.22</ele>
        <time>2026-07-16T06:25:09Z</time>
      </trkpt>
      <trkpt lat="43.09613" lon="-1.4165">
        <ele>513.3</ele>
        <time>2026-07-16T06:25:35Z</time>
      </trkpt>
      <trkpt lat="43.09605" lon="-1.41631">
        <ele>514.96</ele>
        <time>2026-07-16T06:25:54Z</time>
      </trkpt>
      <trkpt lat="43.09599" lon="-1.41612">
        <ele>517.07</ele>
        <time>2026-07-16T06:26:11Z</time>
      </trkpt>
      <trkpt lat="43.09594" lon="-1.41605">
        <ele>517.98</ele>
        <time>2026-07-16T06:26:23Z</time>
      </trkpt>
      <trkpt lat="43.09593" lon="-1.41597">
        <ele>518.49</ele>
        <time>2026-07-16T06:26:41Z</time>
      </trkpt>
      <trkpt lat="43.09586" lon="-1.41572">
        <ele>518.86</ele>
        <time>2026-07-16T06:27:04Z</time>
      </trkpt>
      <trkpt lat="43.09571" lon="-1.41552">
        <ele>520</ele>
        <time>2026-07-16T06:27:27Z</time>
      </trkpt>
      <trkpt lat="43.09562" lon="-1.41537">
        <ele>518.99</ele>
        <time>2026-07-16T06:27:44Z</time>
      </trkpt>
      <trkpt lat="43.09556" lon="-1.41524">
        <ele>517.55</ele>
        <time>2026-07-16T06:28:02Z</time>
      </trkpt>
      <trkpt lat="43.09552" lon="-1.41517">
        <ele>517.05</ele>
        <time>2026-07-16T06:28:12Z</time>
      </trkpt>
      <trkpt lat="43.09551" lon="-1.41513">
        <ele>517.26</ele>
        <time>2026-07-16T06:28:14Z</time>
      </trkpt>
      <trkpt lat="43.09544" lon="-1.41499">
        <ele>517.06</ele>
        <time>2026-07-16T06:28:29Z</time>
      </trkpt>
      <trkpt lat="43.09541" lon="-1.41492">
        <ele>517.06</ele>
        <time>2026-07-16T06:28:41Z</time>
      </trkpt>
      <trkpt lat="43.09529" lon="-1.41467">
        <ele>519.04</ele>
        <time>2026-07-16T06:29:04Z</time>
      </trkpt>
      <trkpt lat="43.09521" lon="-1.41452">
        <ele>522.09</ele>
        <time>2026-07-16T06:29:21Z</time>
      </trkpt>
      <trkpt lat="43.09521" lon="-1.4145">
        <ele>522.36</ele>
        <time>2026-07-16T06:29:22Z</time>
      </trkpt>
      <trkpt lat="43.09521" lon="-1.41447">
        <ele>522.5</ele>
        <time>2026-07-16T06:29:24Z</time>
      </trkpt>
      <trkpt lat="43.09518" lon="-1.41431">
        <ele>524.32</ele>
        <time>2026-07-16T06:29:39Z</time>
      </trkpt>
      <trkpt lat="43.09522" lon="-1.41411">
        <ele>526.82</ele>
        <time>2026-07-16T06:29:58Z</time>
      </trkpt>
      <trkpt lat="43.09519" lon="-1.41413">
        <ele>526.53</ele>
        <time>2026-07-16T06:30:27Z</time>
      </trkpt>
      <trkpt lat="43.09515" lon="-1.41411">
        <ele>526.73</ele>
        <time>2026-07-16T06:30:57Z</time>
      </trkpt>
      <trkpt lat="43.09505" lon="-1.41408">
        <ele>529.72</ele>
        <time>2026-07-16T06:31:19Z</time>
      </trkpt>
      <trkpt lat="43.09493" lon="-1.41411">
        <ele>532.35</ele>
        <time>2026-07-16T06:31:40Z</time>
      </trkpt>
      <trkpt lat="43.09483" lon="-1.41415">
        <ele>535.52</ele>
        <time>2026-07-16T06:31:59Z</time>
      </trkpt>
      <trkpt lat="43.09473" lon="-1.41427">
        <ele>537.36</ele>
        <time>2026-07-16T06:32:18Z</time>
      </trkpt>
      <trkpt lat="43.09464" lon="-1.41436">
        <ele>537.68</ele>
        <time>2026-07-16T06:32:40Z</time>
      </trkpt>
      <trkpt lat="43.09455" lon="-1.41445">
        <ele>537.98</ele>
        <time>2026-07-16T06:32:57Z</time>
      </trkpt>
      <trkpt lat="43.09454" lon="-1.4145">
        <ele>537.84</ele>
        <time>2026-07-16T06:33:22Z</time>
      </trkpt>
      <trkpt lat="43.09457" lon="-1.41453">
        <ele>537.62</ele>
        <time>2026-07-16T06:33:46Z</time>
      </trkpt>
      <trkpt lat="43.09444" lon="-1.4145">
        <ele>536.9</ele>
        <time>2026-07-16T06:34:05Z</time>
      </trkpt>
      <trkpt lat="43.09427" lon="-1.41458">
        <ele>534.45</ele>
        <time>2026-07-16T06:34:26Z</time>
      </trkpt>
      <trkpt lat="43.09411" lon="-1.41469">
        <ele>532.55</ele>
        <time>2026-07-16T06:34:50Z</time>
      </trkpt>
      <trkpt lat="43.0941" lon="-1.41472">
        <ele>532.08</ele>
        <time>2026-07-16T06:34:53Z</time>
      </trkpt>
      <trkpt lat="43.09403" lon="-1.41484">
        <ele>532.62</ele>
        <time>2026-07-16T06:35:10Z</time>
      </trkpt>
      <trkpt lat="43.09398" lon="-1.41491">
        <ele>532.46</ele>
        <time>2026-07-16T06:35:20Z</time>
      </trkpt>
      <trkpt lat="43.09391" lon="-1.41498">
        <ele>531.36</ele>
        <time>2026-07-16T06:35:39Z</time>
      </trkpt>
      <trkpt lat="43.09384" lon="-1.41507">
        <ele>530.46</ele>
        <time>2026-07-16T06:35:52Z</time>
      </trkpt>
      <trkpt lat="43.09377" lon="-1.41521">
        <ele>529.3</ele>
        <time>2026-07-16T06:36:05Z</time>
      </trkpt>
      <trkpt lat="43.0937" lon="-1.41532">
        <ele>528.68</ele>
        <time>2026-07-16T06:36:18Z</time>
      </trkpt>
      <trkpt lat="43.09361" lon="-1.41542">
        <ele>527.2</ele>
        <time>2026-07-16T06:36:35Z</time>
      </trkpt>
      <trkpt lat="43.09354" lon="-1.41556">
        <ele>527.2</ele>
        <time>2026-07-16T06:36:49Z</time>
      </trkpt>
      <trkpt lat="43.09348" lon="-1.4157">
        <ele>526.43</ele>
        <time>2026-07-16T06:37:05Z</time>
      </trkpt>
      <trkpt lat="43.0934" lon="-1.41579">
        <ele>525.1</ele>
        <time>2026-07-16T06:37:21Z</time>
      </trkpt>
      <trkpt lat="43.09329" lon="-1.4159">
        <ele>524.34</ele>
        <time>2026-07-16T06:37:39Z</time>
      </trkpt>
      <trkpt lat="43.0932" lon="-1.41604">
        <ele>524.83</ele>
        <time>2026-07-16T06:37:53Z</time>
      </trkpt>
      <trkpt lat="43.09316" lon="-1.41619">
        <ele>526.48</ele>
        <time>2026-07-16T06:38:05Z</time>
      </trkpt>
      <trkpt lat="43.09304" lon="-1.41627">
        <ele>524.83</ele>
        <time>2026-07-16T06:38:23Z</time>
      </trkpt>
      <trkpt lat="43.09293" lon="-1.41638">
        <ele>523.36</ele>
        <time>2026-07-16T06:38:40Z</time>
      </trkpt>
      <trkpt lat="43.09286" lon="-1.4165">
        <ele>522.83</ele>
        <time>2026-07-16T06:38:58Z</time>
      </trkpt>
      <trkpt lat="43.09282" lon="-1.41666">
        <ele>521.92</ele>
        <time>2026-07-16T06:39:14Z</time>
      </trkpt>
      <trkpt lat="43.09281" lon="-1.41679">
        <ele>521.18</ele>
        <time>2026-07-16T06:39:26Z</time>
      </trkpt>
      <trkpt lat="43.09278" lon="-1.41695">
        <ele>520.75</ele>
        <time>2026-07-16T06:39:38Z</time>
      </trkpt>
      <trkpt lat="43.09275" lon="-1.41699">
        <ele>520.24</ele>
        <time>2026-07-16T06:39:48Z</time>
      </trkpt>
      <trkpt lat="43.09272" lon="-1.41703">
        <ele>520.38</ele>
        <time>2026-07-16T06:39:53Z</time>
      </trkpt>
      <trkpt lat="43.09261" lon="-1.41717">
        <ele>519.75</ele>
        <time>2026-07-16T06:40:08Z</time>
      </trkpt>
      <trkpt lat="43.09252" lon="-1.41723">
        <ele>519.51</ele>
        <time>2026-07-16T06:40:22Z</time>
      </trkpt>
      <trkpt lat="43.09248" lon="-1.41724">
        <ele>519.47</ele>
        <time>2026-07-16T06:40:32Z</time>
      </trkpt>
      <trkpt lat="43.09233" lon="-1.41741">
        <ele>519.51</ele>
        <time>2026-07-16T06:40:48Z</time>
      </trkpt>
      <trkpt lat="43.09215" lon="-1.41756">
        <ele>519.19</ele>
        <time>2026-07-16T06:41:11Z</time>
      </trkpt>
      <trkpt lat="43.09211" lon="-1.41757">
        <ele>519.36</ele>
        <time>2026-07-16T06:41:25Z</time>
      </trkpt>
      <trkpt lat="43.09209" lon="-1.41759">
        <ele>519.8</ele>
        <time>2026-07-16T06:41:46Z</time>
      </trkpt>
      <trkpt lat="43.09212" lon="-1.4176">
        <ele>518.28</ele>
        <time>2026-07-16T06:42:02Z</time>
      </trkpt>
      <trkpt lat="43.0921" lon="-1.41771">
        <ele>516.07</ele>
        <time>2026-07-16T06:42:21Z</time>
      </trkpt>
      <trkpt lat="43.09216" lon="-1.41777">
        <ele>514.64</ele>
        <time>2026-07-16T06:42:36Z</time>
      </trkpt>
      <trkpt lat="43.09217" lon="-1.41785">
        <ele>512.63</ele>
        <time>2026-07-16T06:42:54Z</time>
      </trkpt>
      <trkpt lat="43.0922" lon="-1.41796">
        <ele>510.98</ele>
        <time>2026-07-16T06:43:10Z</time>
      </trkpt>
      <trkpt lat="43.09221" lon="-1.41803">
        <ele>509.3</ele>
        <time>2026-07-16T06:43:22Z</time>
      </trkpt>
      <trkpt lat="43.09222" lon="-1.41816">
        <ele>507.34</ele>
        <time>2026-07-16T06:43:36Z</time>
      </trkpt>
      <trkpt lat="43.09221" lon="-1.41823">
        <ele>506.27</ele>
        <time>2026-07-16T06:43:46Z</time>
      </trkpt>
      <trkpt lat="43.09216" lon="-1.41838">
        <ele>502.8</ele>
        <time>2026-07-16T06:44:11Z</time>
      </trkpt>
      <trkpt lat="43.09208" lon="-1.41849">
        <ele>501.4</ele>
        <time>2026-07-16T06:44:27Z</time>
      </trkpt>
      <trkpt lat="43.09208" lon="-1.41845">
        <ele>498.85</ele>
        <time>2026-07-16T06:44:43Z</time>
      </trkpt>
      <trkpt lat="43.092" lon="-1.41831">
        <ele>497.06</ele>
        <time>2026-07-16T06:44:59Z</time>
      </trkpt>
      <trkpt lat="43.0919" lon="-1.41827">
        <ele>496.02</ele>
        <time>2026-07-16T06:45:12Z</time>
      </trkpt>
      <trkpt lat="43.09183" lon="-1.41827">
        <ele>494.46</ele>
        <time>2026-07-16T06:45:24Z</time>
      </trkpt>
      <trkpt lat="43.09182" lon="-1.41827">
        <ele>494.34</ele>
        <time>2026-07-16T06:45:26Z</time>
      </trkpt>
      <trkpt lat="43.09187" lon="-1.41839">
        <ele>491.24</ele>
        <time>2026-07-16T06:45:58Z</time>
      </trkpt>
      <trkpt lat="43.09188" lon="-1.41849">
        <ele>489.98</ele>
        <time>2026-07-16T06:46:14Z</time>
      </trkpt>
      <trkpt lat="43.09185" lon="-1.41848">
        <ele>489.65</ele>
        <time>2026-07-16T06:46:22Z</time>
      </trkpt>
      <trkpt lat="43.09177" lon="-1.4185">
        <ele>488.71</ele>
        <time>2026-07-16T06:46:45Z</time>
      </trkpt>
      <trkpt lat="43.09178" lon="-1.41847">
        <ele>488.76</ele>
        <time>2026-07-16T06:47:05Z</time>
      </trkpt>
      <trkpt lat="43.0917" lon="-1.4186">
        <ele>488.87</ele>
        <time>2026-07-16T06:47:20Z</time>
      </trkpt>
      <trkpt lat="43.09166" lon="-1.41864">
        <ele>488.56</ele>
        <time>2026-07-16T06:47:27Z</time>
      </trkpt>
      <trkpt lat="43.09159" lon="-1.41873">
        <ele>488.43</ele>
        <time>2026-07-16T06:47:36Z</time>
      </trkpt>
      <trkpt lat="43.0915" lon="-1.41885">
        <ele>487.69</ele>
        <time>2026-07-16T06:47:48Z</time>
      </trkpt>
      <trkpt lat="43.09145" lon="-1.41898">
        <ele>487.53</ele>
        <time>2026-07-16T06:47:57Z</time>
      </trkpt>
      <trkpt lat="43.09137" lon="-1.41908">
        <ele>486.92</ele>
        <time>2026-07-16T06:48:10Z</time>
      </trkpt>
      <trkpt lat="43.09126" lon="-1.41913">
        <ele>485.45</ele>
        <time>2026-07-16T06:48:24Z</time>
      </trkpt>
      <trkpt lat="43.09115" lon="-1.41922">
        <ele>484.8</ele>
        <time>2026-07-16T06:48:38Z</time>
      </trkpt>
      <trkpt lat="43.09109" lon="-1.41925">
        <ele>483.98</ele>
        <time>2026-07-16T06:48:47Z</time>
      </trkpt>
      <trkpt lat="43.09102" lon="-1.41939">
        <ele>483.32</ele>
        <time>2026-07-16T06:49:03Z</time>
      </trkpt>
      <trkpt lat="43.09098" lon="-1.41956">
        <ele>481.73</ele>
        <time>2026-07-16T06:49:19Z</time>
      </trkpt>
      <trkpt lat="43.09092" lon="-1.41971">
        <ele>480.06</ele>
        <time>2026-07-16T06:49:38Z</time>
      </trkpt>
      <trkpt lat="43.09091" lon="-1.41975">
        <ele>479.43</ele>
        <time>2026-07-16T06:49:46Z</time>
      </trkpt>
      <trkpt lat="43.09089" lon="-1.41987">
        <ele>478.42</ele>
        <time>2026-07-16T06:49:52Z</time>
      </trkpt>
      <trkpt lat="43.09087" lon="-1.4201">
        <ele>478.51</ele>
        <time>2026-07-16T06:50:17Z</time>
      </trkpt>
      <trkpt lat="43.09085" lon="-1.4201">
        <ele>477.66</ele>
        <time>2026-07-16T06:50:37Z</time>
      </trkpt>
      <trkpt lat="43.09076" lon="-1.42025">
        <ele>476.95</ele>
        <time>2026-07-16T06:50:52Z</time>
      </trkpt>
      <trkpt lat="43.0907" lon="-1.42037">
        <ele>476.85</ele>
        <time>2026-07-16T06:51:03Z</time>
      </trkpt>
      <trkpt lat="43.09068" lon="-1.42044">
        <ele>476.6</ele>
        <time>2026-07-16T06:51:11Z</time>
      </trkpt>
      <trkpt lat="43.09067" lon="-1.4205">
        <ele>476.83</ele>
        <time>2026-07-16T06:51:15Z</time>
      </trkpt>
      <trkpt lat="43.09065" lon="-1.42058">
        <ele>476.84</ele>
        <time>2026-07-16T06:51:20Z</time>
      </trkpt>
      <trkpt lat="43.09065" lon="-1.42062">
        <ele>476.8</ele>
        <time>2026-07-16T06:51:25Z</time>
      </trkpt>
      <trkpt lat="43.09062" lon="-1.42074">
        <ele>476.76</ele>
        <time>2026-07-16T06:51:36Z</time>
      </trkpt>
      <trkpt lat="43.09063" lon="-1.42082">
        <ele>476.39</ele>
        <time>2026-07-16T06:51:51Z</time>
      </trkpt>
      <trkpt lat="43.09065" lon="-1.4209">
        <ele>476.24</ele>
        <time>2026-07-16T06:51:55Z</time>
      </trkpt>
      <trkpt lat="43.09068" lon="-1.42101">
        <ele>476.08</ele>
        <time>2026-07-16T06:52:05Z</time>
      </trkpt>
      <trkpt lat="43.09068" lon="-1.42104">
        <ele>474.95</ele>
        <time>2026-07-16T06:52:16Z</time>
      </trkpt>
      <trkpt lat="43.09068" lon="-1.42106">
        <ele>474.8</ele>
        <time>2026-07-16T06:52:18Z</time>
      </trkpt>
      <trkpt lat="43.09065" lon="-1.42112">
        <ele>473.1</ele>
        <time>2026-07-16T06:52:35Z</time>
      </trkpt>
      <trkpt lat="43.09057" lon="-1.42102">
        <ele>471.2</ele>
        <time>2026-07-16T06:52:53Z</time>
      </trkpt>
      <trkpt lat="43.09058" lon="-1.42115">
        <ele>469.96</ele>
        <time>2026-07-16T06:53:06Z</time>
      </trkpt>
      <trkpt lat="43.09058" lon="-1.42126">
        <ele>468.63</ele>
        <time>2026-07-16T06:53:20Z</time>
      </trkpt>
      <trkpt lat="43.09056" lon="-1.42138">
        <ele>466.51</ele>
        <time>2026-07-16T06:53:49Z</time>
      </trkpt>
      <trkpt lat="43.0906" lon="-1.42149">
        <ele>465.45</ele>
        <time>2026-07-16T06:54:10Z</time>
      </trkpt>
      <trkpt lat="43.09061" lon="-1.42153">
        <ele>463.7</ele>
        <time>2026-07-16T06:54:32Z</time>
      </trkpt>
      <trkpt lat="43.09059" lon="-1.42149">
        <ele>463.22</ele>
        <time>2026-07-16T06:54:54Z</time>
      </trkpt>
      <trkpt lat="43.09057" lon="-1.42155">
        <ele>462.96</ele>
        <time>2026-07-16T06:55:21Z</time>
      </trkpt>
      <trkpt lat="43.0906" lon="-1.42158">
        <ele>462.97</ele>
        <time>2026-07-16T06:55:41Z</time>
      </trkpt>
      <trkpt lat="43.09062" lon="-1.42161">
        <ele>462.22</ele>
        <time>2026-07-16T06:55:48Z</time>
      </trkpt>
      <trkpt lat="43.09063" lon="-1.42161">
        <ele>461.06</ele>
        <time>2026-07-16T06:55:59Z</time>
      </trkpt>
      <trkpt lat="43.09063" lon="-1.42163">
        <ele>460.89</ele>
        <time>2026-07-16T06:56:04Z</time>
      </trkpt>
      <trkpt lat="43.09064" lon="-1.4217">
        <ele>458.75</ele>
        <time>2026-07-16T06:56:18Z</time>
      </trkpt>
      <trkpt lat="43.09063" lon="-1.42173">
        <ele>457.3</ele>
        <time>2026-07-16T06:56:37Z</time>
      </trkpt>
      <trkpt lat="43.09064" lon="-1.42178">
        <ele>457.2</ele>
        <time>2026-07-16T06:56:50Z</time>
      </trkpt>
      <trkpt lat="43.09063" lon="-1.42178">
        <ele>457.03</ele>
        <time>2026-07-16T06:56:52Z</time>
      </trkpt>
      <trkpt lat="43.09063" lon="-1.42179">
        <ele>456.87</ele>
        <time>2026-07-16T06:56:59Z</time>
      </trkpt>
      <trkpt lat="43.0906" lon="-1.42184">
        <ele>455.95</ele>
        <time>2026-07-16T06:57:08Z</time>
      </trkpt>
      <trkpt lat="43.09059" lon="-1.42193">
        <ele>455.87</ele>
        <time>2026-07-16T06:57:14Z</time>
      </trkpt>
      <trkpt lat="43.09061" lon="-1.42197">
        <ele>456.03</ele>
        <time>2026-07-16T06:57:16Z</time>
      </trkpt>
      <trkpt lat="43.09061" lon="-1.42204">
        <ele>456.31</ele>
        <time>2026-07-16T06:57:20Z</time>
      </trkpt>
      <trkpt lat="43.09065" lon="-1.42217">
        <ele>456.31</ele>
        <time>2026-07-16T06:57:29Z</time>
      </trkpt>
      <trkpt lat="43.0906" lon="-1.42229">
        <ele>454.8</ele>
        <time>2026-07-16T06:57:44Z</time>
      </trkpt>
      <trkpt lat="43.09057" lon="-1.42229">
        <ele>454.11</ele>
        <time>2026-07-16T06:57:49Z</time>
      </trkpt>
      <trkpt lat="43.09046" lon="-1.4223">
        <ele>452.84</ele>
        <time>2026-07-16T06:58:07Z</time>
      </trkpt>
      <trkpt lat="43.09039" lon="-1.42221">
        <ele>451.06</ele>
        <time>2026-07-16T06:58:22Z</time>
      </trkpt>
      <trkpt lat="43.09035" lon="-1.42221">
        <ele>449.76</ele>
        <time>2026-07-16T06:58:32Z</time>
      </trkpt>
      <trkpt lat="43.09032" lon="-1.42227">
        <ele>448.15</ele>
        <time>2026-07-16T06:58:49Z</time>
      </trkpt>
      <trkpt lat="43.09027" lon="-1.42232">
        <ele>445.92</ele>
        <time>2026-07-16T06:59:12Z</time>
      </trkpt>
      <trkpt lat="43.09024" lon="-1.42241">
        <ele>444.5</ele>
        <time>2026-07-16T06:59:25Z</time>
      </trkpt>
      <trkpt lat="43.09021" lon="-1.42249">
        <ele>442.75</ele>
        <time>2026-07-16T06:59:41Z</time>
      </trkpt>
      <trkpt lat="43.09019" lon="-1.42258">
        <ele>440.89</ele>
        <time>2026-07-16T06:59:59Z</time>
      </trkpt>
      <trkpt lat="43.09018" lon="-1.42265">
        <ele>439.34</ele>
        <time>2026-07-16T07:00:13Z</time>
      </trkpt>
      <trkpt lat="43.09017" lon="-1.42274">
        <ele>438.41</ele>
        <time>2026-07-16T07:00:27Z</time>
      </trkpt>
      <trkpt lat="43.0902" lon="-1.42283">
        <ele>436.64</ele>
        <time>2026-07-16T07:00:43Z</time>
      </trkpt>
      <trkpt lat="43.09028" lon="-1.42289">
        <ele>435.65</ele>
        <time>2026-07-16T07:00:55Z</time>
      </trkpt>
      <trkpt lat="43.09033" lon="-1.42292">
        <ele>434.21</ele>
        <time>2026-07-16T07:01:07Z</time>
      </trkpt>
      <trkpt lat="43.09037" lon="-1.42297">
        <ele>433.93</ele>
        <time>2026-07-16T07:01:14Z</time>
      </trkpt>
      <trkpt lat="43.09039" lon="-1.42298">
        <ele>433.84</ele>
        <time>2026-07-16T07:01:18Z</time>
      </trkpt>
      <trkpt lat="43.0903" lon="-1.42306">
        <ele>431.77</ele>
        <time>2026-07-16T07:01:40Z</time>
      </trkpt>
      <trkpt lat="43.09023" lon="-1.42308">
        <ele>430.17</ele>
        <time>2026-07-16T07:01:54Z</time>
      </trkpt>
      <trkpt lat="43.09016" lon="-1.42314">
        <ele>427.78</ele>
        <time>2026-07-16T07:02:16Z</time>
      </trkpt>
      <trkpt lat="43.09007" lon="-1.42315">
        <ele>426.54</ele>
        <time>2026-07-16T07:02:42Z</time>
      </trkpt>
      <trkpt lat="43.09" lon="-1.42315">
        <ele>424.96</ele>
        <time>2026-07-16T07:02:55Z</time>
      </trkpt>
      <trkpt lat="43.08988" lon="-1.4231">
        <ele>423.23</ele>
        <time>2026-07-16T07:03:14Z</time>
      </trkpt>
      <trkpt lat="43.0898" lon="-1.42285">
        <ele>420.71</ele>
        <time>2026-07-16T07:03:38Z</time>
      </trkpt>
      <trkpt lat="43.0897" lon="-1.42263">
        <ele>417.38</ele>
        <time>2026-07-16T07:04:03Z</time>
      </trkpt>
      <trkpt lat="43.08961" lon="-1.42239">
        <ele>415.09</ele>
        <time>2026-07-16T07:04:27Z</time>
      </trkpt>
      <trkpt lat="43.08956" lon="-1.42217">
        <ele>412.85</ele>
        <time>2026-07-16T07:04:49Z</time>
      </trkpt>
      <trkpt lat="43.08953" lon="-1.422">
        <ele>410.34</ele>
        <time>2026-07-16T07:05:11Z</time>
      </trkpt>
      <trkpt lat="43.08948" lon="-1.42186">
        <ele>407.33</ele>
        <time>2026-07-16T07:05:29Z</time>
      </trkpt>
      <trkpt lat="43.08946" lon="-1.42175">
        <ele>406.27</ele>
        <time>2026-07-16T07:05:44Z</time>
      </trkpt>
      <trkpt lat="43.08947" lon="-1.42179">
        <ele>406.1</ele>
        <time>2026-07-16T07:06:01Z</time>
      </trkpt>
      <trkpt lat="43.0895" lon="-1.42185">
        <ele>405.79</ele>
        <time>2026-07-16T07:06:24Z</time>
      </trkpt>
      <trkpt lat="43.08963" lon="-1.42187">
        <ele>405.63</ele>
        <time>2026-07-16T07:07:00Z</time>
      </trkpt>
      <trkpt lat="43.0897" lon="-1.42191">
        <ele>405.59</ele>
        <time>2026-07-16T07:07:13Z</time>
      </trkpt>
      <trkpt lat="43.08978" lon="-1.42196">
        <ele>405.63</ele>
        <time>2026-07-16T07:07:27Z</time>
      </trkpt>
      <trkpt lat="43.08969" lon="-1.42193">
        <ele>405.53</ele>
        <time>2026-07-16T07:07:39Z</time>
      </trkpt>
      <trkpt lat="43.08958" lon="-1.42191">
        <ele>405.26</ele>
        <time>2026-07-16T07:07:59Z</time>
      </trkpt>
      <trkpt lat="43.08949" lon="-1.422">
        <ele>403.57</ele>
        <time>2026-07-16T07:08:11Z</time>
      </trkpt>
      <trkpt lat="43.08946" lon="-1.4221">
        <ele>402.39</ele>
        <time>2026-07-16T07:08:26Z</time>
      </trkpt>
      <trkpt lat="43.08939" lon="-1.42228">
        <ele>400.41</ele>
        <time>2026-07-16T07:08:45Z</time>
      </trkpt>
      <trkpt lat="43.08939" lon="-1.4224">
        <ele>399.49</ele>
        <time>2026-07-16T07:08:56Z</time>
      </trkpt>
      <trkpt lat="43.08942" lon="-1.42249">
        <ele>398.55</ele>
        <time>2026-07-16T07:09:04Z</time>
      </trkpt>
      <trkpt lat="43.08943" lon="-1.42269">
        <ele>397.29</ele>
        <time>2026-07-16T07:09:20Z</time>
      </trkpt>
      <trkpt lat="43.08941" lon="-1.42287">
        <ele>395.89</ele>
        <time>2026-07-16T07:09:37Z</time>
      </trkpt>
      <trkpt lat="43.08942" lon="-1.42296">
        <ele>395.1</ele>
        <time>2026-07-16T07:09:45Z</time>
      </trkpt>
      <trkpt lat="43.08941" lon="-1.4231">
        <ele>394.51</ele>
        <time>2026-07-16T07:09:57Z</time>
      </trkpt>
      <trkpt lat="43.08944" lon="-1.42319">
        <ele>393.81</ele>
        <time>2026-07-16T07:10:03Z</time>
      </trkpt>
      <trkpt lat="43.08953" lon="-1.42341">
        <ele>391.95</ele>
        <time>2026-07-16T07:10:20Z</time>
      </trkpt>
      <trkpt lat="43.08955" lon="-1.42351">
        <ele>390.6</ele>
        <time>2026-07-16T07:10:32Z</time>
      </trkpt>
      <trkpt lat="43.08954" lon="-1.42362">
        <ele>389.37</ele>
        <time>2026-07-16T07:10:45Z</time>
      </trkpt>
      <trkpt lat="43.08954" lon="-1.42375">
        <ele>387.61</ele>
        <time>2026-07-16T07:11:00Z</time>
      </trkpt>
      <trkpt lat="43.08955" lon="-1.42392">
        <ele>386.15</ele>
        <time>2026-07-16T07:11:15Z</time>
      </trkpt>
      <trkpt lat="43.08956" lon="-1.42401">
        <ele>385.6</ele>
        <time>2026-07-16T07:11:25Z</time>
      </trkpt>
      <trkpt lat="43.08962" lon="-1.4241">
        <ele>385.42</ele>
        <time>2026-07-16T07:11:35Z</time>
      </trkpt>
      <trkpt lat="43.08965" lon="-1.42416">
        <ele>385.21</ele>
        <time>2026-07-16T07:11:40Z</time>
      </trkpt>
      <trkpt lat="43.0897" lon="-1.42433">
        <ele>384.95</ele>
        <time>2026-07-16T07:11:55Z</time>
      </trkpt>
      <trkpt lat="43.08981" lon="-1.42442">
        <ele>384.83</ele>
        <time>2026-07-16T07:12:11Z</time>
      </trkpt>
      <trkpt lat="43.08998" lon="-1.42444">
        <ele>384.47</ele>
        <time>2026-07-16T07:12:31Z</time>
      </trkpt>
      <trkpt lat="43.09006" lon="-1.42449">
        <ele>383.98</ele>
        <time>2026-07-16T07:12:43Z</time>
      </trkpt>
      <trkpt lat="43.09006" lon="-1.42458">
        <ele>384.16</ele>
        <time>2026-07-16T07:12:55Z</time>
      </trkpt>
      <trkpt lat="43.09006" lon="-1.42461">
        <ele>383.77</ele>
        <time>2026-07-16T07:13:08Z</time>
      </trkpt>
      <trkpt lat="43.09012" lon="-1.42461">
        <ele>383.64</ele>
        <time>2026-07-16T07:13:35Z</time>
      </trkpt>
      <trkpt lat="43.09017" lon="-1.42456">
        <ele>383.69</ele>
        <time>2026-07-16T07:13:42Z</time>
      </trkpt>
      <trkpt lat="43.0903" lon="-1.42456">
        <ele>383.09</ele>
        <time>2026-07-16T07:13:58Z</time>
      </trkpt>
      <trkpt lat="43.09043" lon="-1.4246">
        <ele>382.59</ele>
        <time>2026-07-16T07:14:11Z</time>
      </trkpt>
      <trkpt lat="43.09048" lon="-1.42463">
        <ele>382.46</ele>
        <time>2026-07-16T07:14:20Z</time>
      </trkpt>
      <trkpt lat="43.09061" lon="-1.42466">
        <ele>381.74</ele>
        <time>2026-07-16T07:14:34Z</time>
      </trkpt>
      <trkpt lat="43.09072" lon="-1.42467">
        <ele>381.26</ele>
        <time>2026-07-16T07:14:46Z</time>
      </trkpt>
      <trkpt lat="43.09094" lon="-1.42471">
        <ele>380.8</ele>
        <time>2026-07-16T07:15:08Z</time>
      </trkpt>
      <trkpt lat="43.09106" lon="-1.42471">
        <ele>380.08</ele>
        <time>2026-07-16T07:15:21Z</time>
      </trkpt>
      <trkpt lat="43.09121" lon="-1.42471">
        <ele>379.59</ele>
        <time>2026-07-16T07:15:38Z</time>
      </trkpt>
      <trkpt lat="43.09132" lon="-1.42472">
        <ele>379.13</ele>
        <time>2026-07-16T07:15:49Z</time>
      </trkpt>
      <trkpt lat="43.09141" lon="-1.42473">
        <ele>378.85</ele>
        <time>2026-07-16T07:15:59Z</time>
      </trkpt>
      <trkpt lat="43.09145" lon="-1.42474">
        <ele>378.86</ele>
        <time>2026-07-16T07:16:03Z</time>
      </trkpt>
      <trkpt lat="43.09149" lon="-1.42472">
        <ele>378.58</ele>
        <time>2026-07-16T07:16:07Z</time>
      </trkpt>
      <trkpt lat="43.09163" lon="-1.42474">
        <ele>378.47</ele>
        <time>2026-07-16T07:16:17Z</time>
      </trkpt>
      <trkpt lat="43.09176" lon="-1.4248">
        <ele>378.39</ele>
        <time>2026-07-16T07:16:37Z</time>
      </trkpt>
      <trkpt lat="43.09185" lon="-1.42481">
        <ele>377.8</ele>
        <time>2026-07-16T07:16:47Z</time>
      </trkpt>
      <trkpt lat="43.09193" lon="-1.42483">
        <ele>377.72</ele>
        <time>2026-07-16T07:16:58Z</time>
      </trkpt>
      <trkpt lat="43.092" lon="-1.42481">
        <ele>377.32</ele>
        <time>2026-07-16T07:17:06Z</time>
      </trkpt>
      <trkpt lat="43.09211" lon="-1.42482">
        <ele>377.2</ele>
        <time>2026-07-16T07:17:20Z</time>
      </trkpt>
      <trkpt lat="43.09219" lon="-1.42485">
        <ele>377.22</ele>
        <time>2026-07-16T07:17:29Z</time>
      </trkpt>
      <trkpt lat="43.09223" lon="-1.42484">
        <ele>377.41</ele>
        <time>2026-07-16T07:17:34Z</time>
      </trkpt>
      <trkpt lat="43.09234" lon="-1.42487">
        <ele>377.2</ele>
        <time>2026-07-16T07:17:47Z</time>
      </trkpt>
      <trkpt lat="43.09238" lon="-1.42489">
        <ele>377.05</ele>
        <time>2026-07-16T07:17:52Z</time>
      </trkpt>
      <trkpt lat="43.09242" lon="-1.42496">
        <ele>377.08</ele>
        <time>2026-07-16T07:17:57Z</time>
      </trkpt>
      <trkpt lat="43.09254" lon="-1.42503">
        <ele>377.07</ele>
        <time>2026-07-16T07:18:10Z</time>
      </trkpt>
      <trkpt lat="43.09258" lon="-1.42504">
        <ele>377.14</ele>
        <time>2026-07-16T07:18:13Z</time>
      </trkpt>
      <trkpt lat="43.09263" lon="-1.42505">
        <ele>377.23</ele>
        <time>2026-07-16T07:18:19Z</time>
      </trkpt>
      <trkpt lat="43.09265" lon="-1.42504">
        <ele>377.18</ele>
        <time>2026-07-16T07:18:21Z</time>
      </trkpt>
      <trkpt lat="43.09277" lon="-1.42504">
        <ele>377.37</ele>
        <time>2026-07-16T07:18:33Z</time>
      </trkpt>
      <trkpt lat="43.09287" lon="-1.42501">
        <ele>377.31</ele>
        <time>2026-07-16T07:18:45Z</time>
      </trkpt>
      <trkpt lat="43.09296" lon="-1.42499">
        <ele>377.09</ele>
        <time>2026-07-16T07:18:54Z</time>
      </trkpt>
      <trkpt lat="43.093" lon="-1.42499">
        <ele>377.07</ele>
        <time>2026-07-16T07:18:57Z</time>
      </trkpt>
      <trkpt lat="43.09311" lon="-1.42497">
        <ele>376.99</ele>
        <time>2026-07-16T07:19:08Z</time>
      </trkpt>
      <trkpt lat="43.09315" lon="-1.42492">
        <ele>376.87</ele>
        <time>2026-07-16T07:19:17Z</time>
      </trkpt>
      <trkpt lat="43.09316" lon="-1.42491">
        <ele>376.67</ele>
        <time>2026-07-16T07:19:19Z</time>
      </trkpt>
      <trkpt lat="43.0932" lon="-1.42492">
        <ele>376.92</ele>
        <time>2026-07-16T07:19:21Z</time>
      </trkpt>
      <trkpt lat="43.09326" lon="-1.42493">
        <ele>376.94</ele>
        <time>2026-07-16T07:19:25Z</time>
      </trkpt>
      <trkpt lat="43.09328" lon="-1.42492">
        <ele>376.55</ele>
        <time>2026-07-16T07:19:28Z</time>
      </trkpt>
      <trkpt lat="43.09333" lon="-1.42492">
        <ele>376.66</ele>
        <time>2026-07-16T07:19:31Z</time>
      </trkpt>
      <trkpt lat="43.09339" lon="-1.42488">
        <ele>376.69</ele>
        <time>2026-07-16T07:19:37Z</time>
      </trkpt>
      <trkpt lat="43.09351" lon="-1.42485">
        <ele>376.19</ele>
        <time>2026-07-16T07:19:51Z</time>
      </trkpt>
      <trkpt lat="43.09354" lon="-1.42485">
        <ele>376.06</ele>
        <time>2026-07-16T07:19:54Z</time>
      </trkpt>
      <trkpt lat="43.09364" lon="-1.42485">
        <ele>375.57</ele>
        <time>2026-07-16T07:20:04Z</time>
      </trkpt>
      <trkpt lat="43.09375" lon="-1.4249">
        <ele>374.94</ele>
        <time>2026-07-16T07:20:23Z</time>
      </trkpt>
      <trkpt lat="43.09385" lon="-1.42492">
        <ele>374.64</ele>
        <time>2026-07-16T07:20:35Z</time>
      </trkpt>
      <trkpt lat="43.09394" lon="-1.42496">
        <ele>374.9</ele>
        <time>2026-07-16T07:20:45Z</time>
      </trkpt>
      <trkpt lat="43.09406" lon="-1.42501">
        <ele>374.95</ele>
        <time>2026-07-16T07:20:59Z</time>
      </trkpt>
      <trkpt lat="43.09415" lon="-1.42504">
        <ele>374.68</ele>
        <time>2026-07-16T07:21:15Z</time>
      </trkpt>
      <trkpt lat="43.0942" lon="-1.42506">
        <ele>374.97</ele>
        <time>2026-07-16T07:21:30Z</time>
      </trkpt>
      <trkpt lat="43.09421" lon="-1.42507">
        <ele>375.04</ele>
        <time>2026-07-16T07:21:33Z</time>
      </trkpt>
      <trkpt lat="43.09425" lon="-1.4251">
        <ele>373.66</ele>
        <time>2026-07-16T07:21:52Z</time>
      </trkpt>
      <trkpt lat="43.09431" lon="-1.42524">
        <ele>373.92</ele>
        <time>2026-07-16T07:22:04Z</time>
      </trkpt>
      <trkpt lat="43.09431" lon="-1.42525">
        <ele>374.28</ele>
        <time>2026-07-16T07:22:05Z</time>
      </trkpt>
      <trkpt lat="43.09432" lon="-1.42529">
        <ele>373.69</ele>
        <time>2026-07-16T07:22:08Z</time>
      </trkpt>
      <trkpt lat="43.09437" lon="-1.42544">
        <ele>373.26</ele>
        <time>2026-07-16T07:22:25Z</time>
      </trkpt>
      <trkpt lat="43.09447" lon="-1.42562">
        <ele>373.91</ele>
        <time>2026-07-16T07:22:45Z</time>
      </trkpt>
      <trkpt lat="43.0945" lon="-1.42566">
        <ele>373.7</ele>
        <time>2026-07-16T07:22:51Z</time>
      </trkpt>
      <trkpt lat="43.09457" lon="-1.42583">
        <ele>373.54</ele>
        <time>2026-07-16T07:23:03Z</time>
      </trkpt>
      <trkpt lat="43.0946" lon="-1.42588">
        <ele>373.32</ele>
        <time>2026-07-16T07:23:08Z</time>
      </trkpt>
      <trkpt lat="43.0946" lon="-1.4259">
        <ele>373.11</ele>
        <time>2026-07-16T07:23:10Z</time>
      </trkpt>
      <trkpt lat="43.0947" lon="-1.42603">
        <ele>372.87</ele>
        <time>2026-07-16T07:23:17Z</time>
      </trkpt>
      <trkpt lat="43.09475" lon="-1.4261">
        <ele>370.87</ele>
        <time>2026-07-16T07:23:32Z</time>
      </trkpt>
      <trkpt lat="43.09477" lon="-1.42614">
        <ele>369.96</ele>
        <time>2026-07-16T07:23:39Z</time>
      </trkpt>
      <trkpt lat="43.09482" lon="-1.42631">
        <ele>368.73</ele>
        <time>2026-07-16T07:23:55Z</time>
      </trkpt>
      <trkpt lat="43.09487" lon="-1.42638">
        <ele>368.74</ele>
        <time>2026-07-16T07:24:08Z</time>
      </trkpt>
      <trkpt lat="43.09497" lon="-1.42641">
        <ele>368.32</ele>
        <time>2026-07-16T07:24:19Z</time>
      </trkpt>
      <trkpt lat="43.0951" lon="-1.42647">
        <ele>369.59</ele>
        <time>2026-07-16T07:24:46Z</time>
      </trkpt>
      <trkpt lat="43.09513" lon="-1.42639">
        <ele>370.37</ele>
        <time>2026-07-16T07:25:02Z</time>
      </trkpt>
      <trkpt lat="43.09516" lon="-1.42632">
        <ele>371.59</ele>
        <time>2026-07-16T07:25:11Z</time>
      </trkpt>
      <trkpt lat="43.09526" lon="-1.42622">
        <ele>371.97</ele>
        <time>2026-07-16T07:25:23Z</time>
      </trkpt>
      <trkpt lat="43.09533" lon="-1.42618">
        <ele>372.42</ele>
        <time>2026-07-16T07:25:31Z</time>
      </trkpt>
      <trkpt lat="43.09545" lon="-1.42606">
        <ele>373.02</ele>
        <time>2026-07-16T07:25:44Z</time>
      </trkpt>
      <trkpt lat="43.09561" lon="-1.42597">
        <ele>372.94</ele>
        <time>2026-07-16T07:26:00Z</time>
      </trkpt>
      <trkpt lat="43.0957" lon="-1.42594">
        <ele>372.58</ele>
        <time>2026-07-16T07:26:12Z</time>
      </trkpt>
      <trkpt lat="43.09583" lon="-1.42586">
        <ele>372.23</ele>
        <time>2026-07-16T07:26:26Z</time>
      </trkpt>
      <trkpt lat="43.09595" lon="-1.42587">
        <ele>371.72</ele>
        <time>2026-07-16T07:26:40Z</time>
      </trkpt>
      <trkpt lat="43.09597" lon="-1.42588">
        <ele>371.41</ele>
        <time>2026-07-16T07:26:43Z</time>
      </trkpt>
      <trkpt lat="43.09603" lon="-1.42591">
        <ele>371.26</ele>
        <time>2026-07-16T07:26:47Z</time>
      </trkpt>
      <trkpt lat="43.0961" lon="-1.42593">
        <ele>371.2</ele>
        <time>2026-07-16T07:26:57Z</time>
      </trkpt>
      <trkpt lat="43.09622" lon="-1.42595">
        <ele>370.96</ele>
        <time>2026-07-16T07:27:09Z</time>
      </trkpt>
      <trkpt lat="43.09636" lon="-1.42598">
        <ele>370.47</ele>
        <time>2026-07-16T07:27:25Z</time>
      </trkpt>
      <trkpt lat="43.09639" lon="-1.426">
        <ele>370.59</ele>
        <time>2026-07-16T07:27:33Z</time>
      </trkpt>
      <trkpt lat="43.09651" lon="-1.42605">
        <ele>370.12</ele>
        <time>2026-07-16T07:27:45Z</time>
      </trkpt>
      <trkpt lat="43.09668" lon="-1.42613">
        <ele>370.09</ele>
        <time>2026-07-16T07:28:02Z</time>
      </trkpt>
      <trkpt lat="43.09677" lon="-1.42619">
        <ele>369.79</ele>
        <time>2026-07-16T07:28:11Z</time>
      </trkpt>
      <trkpt lat="43.09688" lon="-1.42625">
        <ele>370.21</ele>
        <time>2026-07-16T07:28:24Z</time>
      </trkpt>
      <trkpt lat="43.09697" lon="-1.4263">
        <ele>370.08</ele>
        <time>2026-07-16T07:28:34Z</time>
      </trkpt>
      <trkpt lat="43.09705" lon="-1.42636">
        <ele>370.02</ele>
        <time>2026-07-16T07:28:42Z</time>
      </trkpt>
      <trkpt lat="43.09712" lon="-1.42638">
        <ele>370.26</ele>
        <time>2026-07-16T07:28:55Z</time>
      </trkpt>
      <trkpt lat="43.09724" lon="-1.42642">
        <ele>370.48</ele>
        <time>2026-07-16T07:29:06Z</time>
      </trkpt>
      <trkpt lat="43.09738" lon="-1.42646">
        <ele>370.46</ele>
        <time>2026-07-16T07:29:21Z</time>
      </trkpt>
      <trkpt lat="43.0975" lon="-1.42652">
        <ele>369.88</ele>
        <time>2026-07-16T07:29:37Z</time>
      </trkpt>
      <trkpt lat="43.0975" lon="-1.42652">
        <ele>369.55</ele>
        <time>2026-07-16T07:29:38Z</time>
      </trkpt>
      <trkpt lat="43.09761" lon="-1.42658">
        <ele>369.66</ele>
        <time>2026-07-16T07:29:50Z</time>
      </trkpt>
      <trkpt lat="43.09768" lon="-1.4266">
        <ele>369.48</ele>
        <time>2026-07-16T07:29:56Z</time>
      </trkpt>
      <trkpt lat="43.0978" lon="-1.42668">
        <ele>368.92</ele>
        <time>2026-07-16T07:30:09Z</time>
      </trkpt>
      <trkpt lat="43.0979" lon="-1.42676">
        <ele>368.8</ele>
        <time>2026-07-16T07:30:23Z</time>
      </trkpt>
      <trkpt lat="43.09801" lon="-1.42679">
        <ele>368.75</ele>
        <time>2026-07-16T07:30:37Z</time>
      </trkpt>
      <trkpt lat="43.09808" lon="-1.42681">
        <ele>368.52</ele>
        <time>2026-07-16T07:30:50Z</time>
      </trkpt>
      <trkpt lat="43.09815" lon="-1.42688">
        <ele>368.06</ele>
        <time>2026-07-16T07:31:01Z</time>
      </trkpt>
      <trkpt lat="43.09818" lon="-1.4269">
        <ele>367.92</ele>
        <time>2026-07-16T07:31:04Z</time>
      </trkpt>
      <trkpt lat="43.09825" lon="-1.42707">
        <ele>367.27</ele>
        <time>2026-07-16T07:31:21Z</time>
      </trkpt>
      <trkpt lat="43.09825" lon="-1.42707">
        <ele>367.1</ele>
        <time>2026-07-16T07:31:22Z</time>
      </trkpt>
      <trkpt lat="43.09827" lon="-1.42709">
        <ele>366.73</ele>
        <time>2026-07-16T07:31:24Z</time>
      </trkpt>
      <trkpt lat="43.09838" lon="-1.42723">
        <ele>366.51</ele>
        <time>2026-07-16T07:31:37Z</time>
      </trkpt>
      <trkpt lat="43.09846" lon="-1.42736">
        <ele>366.26</ele>
        <time>2026-07-16T07:31:50Z</time>
      </trkpt>
      <trkpt lat="43.09848" lon="-1.4274">
        <ele>365.82</ele>
        <time>2026-07-16T07:31:54Z</time>
      </trkpt>
      <trkpt lat="43.09855" lon="-1.42746">
        <ele>366.05</ele>
        <time>2026-07-16T07:32:02Z</time>
      </trkpt>
      <trkpt lat="43.09856" lon="-1.42748">
        <ele>365.75</ele>
        <time>2026-07-16T07:32:04Z</time>
      </trkpt>
      <trkpt lat="43.09856" lon="-1.42753">
        <ele>366</ele>
        <time>2026-07-16T07:32:08Z</time>
      </trkpt>
      <trkpt lat="43.09858" lon="-1.42758">
        <ele>365.89</ele>
        <time>2026-07-16T07:32:12Z</time>
      </trkpt>
      <trkpt lat="43.09855" lon="-1.42762">
        <ele>365.85</ele>
        <time>2026-07-16T07:32:15Z</time>
      </trkpt>
      <trkpt lat="43.09857" lon="-1.42779">
        <ele>365.26</ele>
        <time>2026-07-16T07:32:28Z</time>
      </trkpt>
      <trkpt lat="43.09856" lon="-1.42784">
        <ele>365.06</ele>
        <time>2026-07-16T07:32:32Z</time>
      </trkpt>
      <trkpt lat="43.09857" lon="-1.42799">
        <ele>365.26</ele>
        <time>2026-07-16T07:32:47Z</time>
      </trkpt>
      <trkpt lat="43.09858" lon="-1.428">
        <ele>366.48</ele>
        <time>2026-07-16T07:32:59Z</time>
      </trkpt>
      <trkpt lat="43.09857" lon="-1.428">
        <ele>365.41</ele>
        <time>2026-07-16T07:33:01Z</time>
      </trkpt>
      <trkpt lat="43.09858" lon="-1.428">
        <ele>365.17</ele>
        <time>2026-07-16T07:33:10Z</time>
      </trkpt>
      <trkpt lat="43.09856" lon="-1.42808">
        <ele>365.47</ele>
        <time>2026-07-16T07:33:27Z</time>
      </trkpt>
      <trkpt lat="43.09859" lon="-1.42802">
        <ele>365.53</ele>
        <time>2026-07-16T07:33:45Z</time>
      </trkpt>
      <trkpt lat="43.09861" lon="-1.42799">
        <ele>365.24</ele>
        <time>2026-07-16T07:34:03Z</time>
      </trkpt>
      <trkpt lat="43.09862" lon="-1.42799">
        <ele>365.01</ele>
        <time>2026-07-16T07:34:29Z</time>
      </trkpt>
      <trkpt lat="43.09862" lon="-1.42797">
        <ele>364.7</ele>
        <time>2026-07-16T07:34:51Z</time>
      </trkpt>
      <trkpt lat="43.09863" lon="-1.42799">
        <ele>364.56</ele>
        <time>2026-07-16T07:35:13Z</time>
      </trkpt>
      <trkpt lat="43.09862" lon="-1.42802">
        <ele>364.44</ele>
        <time>2026-07-16T07:35:47Z</time>
      </trkpt>
    </trkseg>
  </trk>
</gpx>